createdAt,value
2019-03-16T00:00:24.513Z,63.86
2019-03-16T00:01:28.047Z,63.89
2019-03-16T00:02:31.566Z,63.88
2019-03-16T00:03:35.116Z,63.86
2019-03-16T00:04:38.615Z,63.90
2019-03-16T00:05:42.121Z,63.89
2019-03-16T00:06:45.643Z,63.89
2019-03-16T00:07:49.141Z,63.90
2019-03-16T00:08:52.634Z,63.90
2019-03-16T00:09:58.803Z,63.92
2019-03-16T00:11:02.315Z,63.92
2019-03-16T00:12:05.912Z,63.95
2019-03-16T00:13:10.493Z,63.95
2019-03-16T00:14:14.000Z,63.96
2019-03-16T00:15:17.622Z,63.97
2019-03-16T00:16:21.120Z,63.97
2019-03-16T00:17:24.656Z,63.98
2019-03-16T00:18:28.209Z,64.00
2019-03-16T00:19:31.712Z,63.99
2019-03-16T00:20:35.302Z,63.98
2019-03-16T00:21:38.821Z,63.99
2019-03-16T00:22:42.452Z,64.03
2019-03-16T00:23:46.027Z,64.03
2019-03-16T00:24:49.880Z,64.01
2019-03-16T00:25:53.480Z,64.01
2019-03-16T00:26:56.968Z,64.00
2019-03-16T00:28:00.519Z,64.03
2019-03-16T00:29:04.135Z,64.05
2019-03-16T00:30:10.349Z,64.05
2019-03-16T00:31:13.891Z,64.03
2019-03-16T00:32:17.376Z,63.99
2019-03-16T00:33:20.982Z,64.00
2019-03-16T00:34:24.590Z,64.06
2019-03-16T00:35:28.198Z,64.02
2019-03-16T00:36:31.792Z,64.03
2019-03-16T00:37:35.291Z,63.98
2019-03-16T00:38:38.985Z,64.03
2019-03-16T00:39:42.501Z,64.03
2019-03-16T00:40:45.981Z,64.04
2019-03-16T00:41:49.486Z,64.06
2019-03-16T00:42:53.108Z,64.04
2019-03-16T00:43:56.645Z,64.06
2019-03-16T00:45:00.368Z,64.10
2019-03-16T00:46:03.988Z,64.10
2019-03-16T00:47:07.491Z,64.09
2019-03-16T00:48:10.971Z,64.08
2019-03-16T00:49:14.647Z,64.07
2019-03-16T00:50:18.212Z,64.18
2019-03-16T00:51:21.713Z,64.27
2019-03-16T00:52:25.225Z,64.37
2019-03-16T00:53:28.774Z,64.42
2019-03-16T00:54:32.351Z,64.45
2019-03-16T00:55:35.862Z,64.44
2019-03-16T00:56:39.430Z,64.51
2019-03-16T00:57:42.994Z,64.52
2019-03-16T00:58:46.518Z,64.46
2019-03-16T00:59:50.106Z,64.41
2019-03-16T01:00:53.661Z,64.36
2019-03-16T01:01:57.181Z,64.40
2019-03-16T01:03:00.667Z,64.42
2019-03-16T01:04:04.333Z,64.42
2019-03-16T01:05:08.785Z,64.43
2019-03-16T01:06:12.323Z,64.49
2019-03-16T01:07:15.823Z,64.74
2019-03-16T01:08:19.333Z,64.82
2019-03-16T01:09:22.870Z,64.84
2019-03-16T01:10:26.414Z,64.86
2019-03-16T01:11:31.446Z,64.88
2019-03-16T01:12:35.101Z,64.90
2019-03-16T01:13:38.732Z,64.95
2019-03-16T01:14:42.226Z,65.00
2019-03-16T01:15:45.755Z,64.98
2019-03-16T01:16:49.237Z,65.02
2019-03-16T01:17:52.812Z,65.01
2019-03-16T01:18:56.322Z,64.97
2019-03-16T01:19:59.809Z,64.98
2019-03-16T01:21:12.478Z,65.00
2019-03-16T01:22:15.964Z,65.06
2019-03-16T01:23:19.447Z,65.02
2019-03-16T01:24:41.494Z,64.96
2019-03-16T01:25:45.009Z,65.03
2019-03-16T01:26:48.522Z,65.14
2019-03-16T01:27:52.096Z,65.12
2019-03-16T01:28:55.565Z,65.17
2019-03-16T01:29:59.062Z,65.27
2019-03-16T01:31:02.580Z,65.38
2019-03-16T01:32:06.119Z,65.27
2019-03-16T01:33:09.694Z,65.21
2019-03-16T01:34:13.189Z,65.26
2019-03-16T01:35:16.923Z,65.27
2019-03-16T01:36:20.707Z,65.21
2019-03-16T01:37:24.193Z,65.29
2019-03-16T01:38:28.339Z,65.23
2019-03-16T01:39:31.833Z,65.23
2019-03-16T01:40:35.406Z,65.25
2019-03-16T01:41:38.906Z,65.36
2019-03-16T01:42:42.402Z,65.30
2019-03-16T01:43:45.885Z,65.29
2019-03-16T01:44:49.382Z,65.38
2019-03-16T01:45:52.874Z,65.38
2019-03-16T01:46:56.422Z,65.39
2019-03-16T01:47:59.920Z,65.33
2019-03-16T01:49:03.395Z,65.22
2019-03-16T01:50:09.338Z,65.26
2019-03-16T01:51:12.845Z,65.14
2019-03-16T01:52:16.370Z,65.18
2019-03-16T01:53:19.944Z,65.25
2019-03-16T01:54:23.425Z,65.29
2019-03-16T01:55:26.913Z,65.20
2019-03-16T01:56:30.408Z,65.13
2019-03-16T01:57:34.011Z,65.11
2019-03-16T01:58:37.576Z,65.08
2019-03-16T01:59:41.064Z,65.10
2019-03-16T02:00:44.627Z,65.17
2019-03-16T02:01:49.438Z,65.20
2019-03-16T02:02:55.745Z,65.21
2019-03-16T02:03:58.481Z,65.21
2019-03-16T02:05:01.974Z,65.17
2019-03-16T02:06:05.602Z,65.25
2019-03-16T02:07:09.097Z,65.27
2019-03-16T02:08:12.623Z,65.25
2019-03-16T02:09:16.186Z,65.23
2019-03-16T02:10:19.680Z,65.12
2019-03-16T02:11:23.440Z,65.13
2019-03-16T02:12:27.076Z,65.16
2019-03-16T02:13:30.580Z,65.15
2019-03-16T02:14:34.162Z,65.19
2019-03-16T02:15:37.786Z,65.17
2019-03-16T02:16:41.276Z,65.52
2019-03-16T02:17:44.794Z,65.55
2019-03-16T02:18:48.379Z,65.65
2019-03-16T02:19:51.881Z,65.66
2019-03-16T02:20:55.361Z,65.64
2019-03-16T02:21:58.922Z,65.80
2019-03-16T02:23:02.426Z,65.82
2019-03-16T02:24:06.021Z,65.81
2019-03-16T02:25:10.363Z,65.80
2019-03-16T02:26:13.916Z,65.83
2019-03-16T02:27:17.403Z,65.84
2019-03-16T02:28:20.984Z,65.82
2019-03-16T02:29:24.504Z,65.89
2019-03-16T02:30:28.012Z,65.92
2019-03-16T02:31:31.513Z,65.95
2019-03-16T02:32:35.052Z,65.86
2019-03-16T02:33:38.782Z,65.82
2019-03-16T02:34:42.348Z,65.77
2019-03-16T02:35:45.867Z,65.85
2019-03-16T02:36:53.115Z,65.82
2019-03-16T02:37:56.732Z,65.81
2019-03-16T02:39:00.266Z,65.84
2019-03-16T02:40:04.683Z,65.80
2019-03-16T02:41:08.275Z,65.81
2019-03-16T02:42:11.799Z,65.74
2019-03-16T02:43:15.285Z,65.77
2019-03-16T02:44:18.840Z,65.75
2019-03-16T02:45:22.554Z,65.85
2019-03-16T02:46:26.015Z,65.97
2019-03-16T02:47:29.589Z,66.04
2019-03-16T02:48:33.090Z,66.06
2019-03-16T02:49:36.589Z,66.13
2019-03-16T02:50:40.175Z,66.14
2019-03-16T02:51:43.659Z,66.12
2019-03-16T02:52:49.943Z,65.98
2019-03-16T02:53:52.377Z,65.92
2019-03-16T02:54:55.873Z,65.94
2019-03-16T02:55:59.383Z,65.88
2019-03-16T02:57:02.879Z,65.88
2019-03-16T02:58:06.380Z,65.85
2019-03-16T02:59:09.881Z,65.73
2019-03-16T03:00:14.111Z,65.62
2019-03-16T03:01:17.707Z,65.58
2019-03-16T03:02:21.282Z,65.56
2019-03-16T03:03:29.601Z,65.55
2019-03-16T03:04:30.030Z,65.58
2019-03-16T03:05:33.584Z,65.59
2019-03-16T03:06:37.181Z,65.59
2019-03-16T03:07:40.685Z,65.58
2019-03-16T03:08:44.165Z,65.57
2019-03-16T03:09:47.727Z,65.55
2019-03-16T03:10:51.249Z,65.56
2019-03-16T03:11:54.767Z,65.56
2019-03-16T03:12:58.251Z,65.57
2019-03-16T03:14:01.739Z,65.57
2019-03-16T03:15:06.746Z,65.57
2019-03-16T03:16:10.250Z,65.54
2019-03-16T03:17:13.772Z,65.57
2019-03-16T03:18:17.401Z,65.55
2019-03-16T03:19:20.904Z,65.55
2019-03-16T03:20:24.393Z,65.57
2019-03-16T03:21:31.016Z,65.58
2019-03-16T03:22:34.628Z,65.59
2019-03-16T03:23:44.186Z,65.71
2019-03-16T03:24:44.416Z,65.70
2019-03-16T03:25:48.435Z,65.67
2019-03-16T03:26:54.776Z,65.82
2019-03-16T03:27:58.295Z,65.89
2019-03-16T03:29:01.787Z,65.87
2019-03-16T03:30:11.089Z,65.87
2019-03-16T03:31:14.762Z,65.87
2019-03-16T03:32:18.256Z,65.85
2019-03-16T03:33:21.887Z,65.91
2019-03-16T03:34:25.577Z,65.93
2019-03-16T03:35:29.701Z,65.97
2019-03-16T03:36:33.315Z,65.90
2019-03-16T03:37:36.803Z,65.92
2019-03-16T03:38:40.580Z,66.06
2019-03-16T03:39:44.360Z,66.14
2019-03-16T03:40:47.827Z,66.33
2019-03-16T03:41:51.331Z,66.32
2019-03-16T03:42:54.827Z,66.21
2019-03-16T03:44:40.428Z,66.14
2019-03-16T03:45:44.346Z,66.10
2019-03-16T03:47:12.061Z,66.11
2019-03-16T03:48:15.639Z,66.32
2019-03-16T03:49:19.162Z,66.38
2019-03-16T03:50:22.646Z,66.38
2019-03-16T03:51:26.215Z,66.43
2019-03-16T03:52:29.718Z,66.49
2019-03-16T03:53:33.334Z,66.47
2019-03-16T03:54:37.031Z,66.41
2019-03-16T03:55:40.589Z,66.40
2019-03-16T03:56:44.244Z,66.37
2019-03-16T03:57:47.905Z,66.37
2019-03-16T03:58:51.516Z,66.45
2019-03-16T03:59:55.184Z,66.75
2019-03-16T04:00:58.802Z,66.91
2019-03-16T04:02:02.358Z,66.96
2019-03-16T04:03:06.007Z,66.89
2019-03-16T04:04:15.795Z,66.83
2019-03-16T04:05:14.975Z,66.94
2019-03-16T04:06:18.549Z,66.99
2019-03-16T04:07:22.469Z,66.96
2019-03-16T04:08:26.024Z,66.77
2019-03-16T04:09:42.908Z,66.62
2019-03-16T04:10:46.408Z,66.59
2019-03-16T04:11:49.953Z,66.57
2019-03-16T04:12:53.499Z,66.61
2019-03-16T04:13:57.233Z,66.71
2019-03-16T04:15:00.792Z,66.66
2019-03-16T04:16:04.364Z,66.60
2019-03-16T04:17:07.946Z,66.47
2019-03-16T04:18:42.816Z,66.24
2019-03-16T04:21:19.015Z,65.97
2019-03-16T04:22:22.492Z,66.01
2019-03-16T04:23:26.031Z,66.03
2019-03-16T04:24:29.614Z,65.99
2019-03-16T04:25:33.355Z,65.77
2019-03-16T04:26:36.845Z,65.67
2019-03-16T04:27:40.367Z,65.53
2019-03-16T04:28:43.994Z,65.34
2019-03-16T04:29:47.514Z,65.24
2019-03-16T04:30:50.989Z,65.14
2019-03-16T04:31:54.546Z,65.08
2019-03-16T04:32:58.063Z,64.97
2019-03-16T04:34:01.572Z,64.91
2019-03-16T04:35:06.368Z,64.80
2019-03-16T04:36:09.841Z,64.71
2019-03-16T04:37:13.372Z,64.63
2019-03-16T04:38:16.863Z,64.60
2019-03-16T04:39:20.484Z,64.64
2019-03-16T04:40:24.003Z,64.54
2019-03-16T04:41:27.527Z,64.44
2019-03-16T04:42:31.024Z,64.60
2019-03-16T04:43:34.568Z,64.46
2019-03-16T04:44:38.099Z,64.34
2019-03-16T04:45:41.653Z,64.23
2019-03-16T04:46:45.232Z,64.25
2019-03-16T04:47:48.725Z,64.28
2019-03-16T04:48:52.241Z,64.20
2019-03-16T04:49:55.749Z,64.21
2019-03-16T04:50:59.307Z,64.26
2019-03-16T04:52:02.840Z,64.26
2019-03-16T04:53:06.395Z,64.18
2019-03-16T04:54:09.881Z,64.11
2019-03-16T04:55:13.442Z,64.04
2019-03-16T04:56:16.926Z,64.08
2019-03-16T04:57:20.854Z,64.10
2019-03-16T04:58:24.430Z,64.12
2019-03-16T04:59:27.908Z,64.18
2019-03-16T05:00:31.409Z,64.18
2019-03-16T05:01:34.928Z,64.17
2019-03-16T05:02:38.435Z,64.14
2019-03-16T05:03:41.944Z,64.03
2019-03-16T05:04:45.429Z,64.08
2019-03-16T05:05:48.984Z,63.98
2019-03-16T05:06:52.468Z,64.02
2019-03-16T05:07:55.971Z,64.01
2019-03-16T05:08:59.513Z,63.97
2019-03-16T05:10:03.142Z,63.99
2019-03-16T05:11:06.720Z,63.96
2019-03-16T05:12:10.284Z,64.00
2019-03-16T05:13:13.793Z,63.99
2019-03-16T05:14:17.311Z,63.97
2019-03-16T05:15:20.797Z,63.97
2019-03-16T05:16:24.375Z,63.93
2019-03-16T05:17:27.860Z,63.98
2019-03-16T05:18:31.349Z,64.03
2019-03-16T05:19:34.875Z,64.02
2019-03-16T05:20:38.381Z,64.04
2019-03-16T05:21:41.929Z,64.10
2019-03-16T05:22:45.432Z,64.14
2019-03-16T05:23:48.937Z,64.23
2019-03-16T05:24:52.524Z,64.17
2019-03-16T05:25:56.126Z,64.26
2019-03-16T05:26:59.892Z,64.36
2019-03-16T05:28:03.416Z,64.32
2019-03-16T05:29:06.897Z,64.28
2019-03-16T05:30:12.781Z,64.30
2019-03-16T05:31:16.274Z,64.42
2019-03-16T05:32:19.830Z,64.32
2019-03-16T05:33:23.355Z,64.30
2019-03-16T05:34:26.916Z,64.29
2019-03-16T05:35:30.444Z,64.31
2019-03-16T05:36:33.919Z,64.39
2019-03-16T05:37:37.410Z,64.29
2019-03-16T05:38:40.918Z,64.30
2019-03-16T05:39:44.434Z,64.31
2019-03-16T05:40:47.993Z,64.30
2019-03-16T05:41:51.618Z,64.29
2019-03-16T05:42:55.105Z,64.34
2019-03-16T05:43:58.607Z,64.33
2019-03-16T05:45:02.108Z,64.28
2019-03-16T05:46:05.767Z,64.32
2019-03-16T05:47:09.275Z,64.34
2019-03-16T05:48:12.776Z,64.43
2019-03-16T05:49:16.345Z,64.55
2019-03-16T05:50:19.835Z,64.43
2019-03-16T05:51:23.374Z,64.37
2019-03-16T05:52:26.947Z,64.49
2019-03-16T05:53:30.438Z,64.47
2019-03-16T05:54:33.924Z,64.39
2019-03-16T05:55:37.422Z,64.35
2019-03-16T05:56:41.024Z,64.33
2019-03-16T05:57:44.511Z,64.36
2019-03-16T05:58:48.009Z,64.33
2019-03-16T05:59:51.513Z,64.34
2019-03-16T06:00:55.005Z,64.46
2019-03-16T06:01:58.577Z,64.39
2019-03-16T06:03:02.072Z,64.28
2019-03-16T06:04:05.573Z,64.29
2019-03-16T06:05:10.785Z,64.38
2019-03-16T06:06:14.409Z,64.37
2019-03-16T06:07:17.996Z,64.39
2019-03-16T06:08:21.479Z,64.42
2019-03-16T06:09:25.001Z,64.46
2019-03-16T06:10:28.513Z,64.43
2019-03-16T06:11:32.006Z,64.44
2019-03-16T06:12:35.539Z,64.38
2019-03-16T06:13:39.037Z,64.33
2019-03-16T06:14:42.518Z,64.32
2019-03-16T06:15:46.090Z,64.32
2019-03-16T06:16:49.615Z,64.32
2019-03-16T06:17:53.163Z,64.33
2019-03-16T06:18:56.679Z,64.27
2019-03-16T06:20:00.375Z,64.23
2019-03-16T06:21:04.374Z,64.40
2019-03-16T06:22:07.844Z,64.34
2019-03-16T06:23:11.371Z,64.48
2019-03-16T06:24:14.897Z,64.60
2019-03-16T06:25:18.391Z,64.73
2019-03-16T06:26:21.886Z,64.76
2019-03-16T06:27:28.371Z,64.80
2019-03-16T06:28:31.884Z,64.77
2019-03-16T06:29:35.469Z,64.73
2019-03-16T06:30:38.953Z,64.73
2019-03-16T06:31:42.469Z,64.68
2019-03-16T06:32:46.041Z,64.74
2019-03-16T06:33:49.652Z,64.78
2019-03-16T06:34:53.241Z,64.75
2019-03-16T06:35:56.746Z,64.78
2019-03-16T06:37:00.230Z,64.75
2019-03-16T06:38:03.741Z,65.00
2019-03-16T06:39:07.784Z,64.84
2019-03-16T06:40:11.982Z,64.90
2019-03-16T06:41:15.469Z,64.83
2019-03-16T06:42:19.036Z,64.76
2019-03-16T06:43:22.549Z,64.85
2019-03-16T06:44:26.071Z,64.90
2019-03-16T06:45:29.570Z,64.78
2019-03-16T06:46:33.068Z,64.89
2019-03-16T06:47:36.781Z,64.97
2019-03-16T06:48:40.252Z,64.94
2019-03-16T06:49:43.861Z,64.95
2019-03-16T06:50:47.344Z,64.90
2019-03-16T06:53:19.549Z,64.92
2019-03-16T06:54:21.994Z,64.92
2019-03-16T06:55:25.656Z,64.90
2019-03-16T06:56:29.128Z,64.79
2019-03-16T06:57:32.699Z,64.82
2019-03-16T06:58:36.197Z,64.76
2019-03-16T06:59:39.670Z,64.88
2019-03-16T07:00:43.308Z,64.91
2019-03-16T07:01:46.873Z,64.89
2019-03-16T07:02:50.502Z,64.89
2019-03-16T07:03:54.143Z,64.86
2019-03-16T07:04:57.613Z,64.98
2019-03-16T07:06:01.128Z,65.04
2019-03-16T07:07:04.854Z,65.09
2019-03-16T07:08:08.483Z,65.29
2019-03-16T07:09:12.075Z,65.19
2019-03-16T07:10:15.590Z,65.12
2019-03-16T07:11:19.122Z,65.16
2019-03-16T07:12:22.698Z,65.10
2019-03-16T07:13:26.210Z,65.08
2019-03-16T07:14:42.772Z,65.14
2019-03-16T07:15:46.277Z,65.15
2019-03-16T07:17:01.324Z,65.16
2019-03-16T07:17:55.019Z,65.07
2019-03-16T07:18:59.220Z,65.04
2019-03-16T07:20:02.790Z,65.12
2019-03-16T07:21:06.358Z,65.11
2019-03-16T07:22:10.054Z,65.16
2019-03-16T07:23:13.835Z,65.24
2019-03-16T07:24:17.387Z,65.23
2019-03-16T07:25:21.036Z,65.20
2019-03-16T07:26:24.509Z,65.26
2019-03-16T07:27:28.135Z,65.22
2019-03-16T07:28:31.626Z,65.20
2019-03-16T07:29:35.121Z,65.15
2019-03-16T07:30:38.701Z,65.19
2019-03-16T07:31:42.484Z,65.23
2019-03-16T07:32:45.975Z,65.11
2019-03-16T07:33:49.880Z,65.14
2019-03-16T07:34:53.455Z,65.09
2019-03-16T07:35:56.936Z,65.14
2019-03-16T07:37:00.731Z,65.17
2019-03-16T07:38:04.332Z,65.28
2019-03-16T07:39:08.217Z,65.38
2019-03-16T07:40:13.260Z,65.45
2019-03-16T07:41:16.743Z,65.40
2019-03-16T07:42:20.264Z,65.47
2019-03-16T07:43:41.812Z,65.62
2019-03-16T07:44:45.300Z,65.39
2019-03-16T07:45:48.808Z,65.38
2019-03-16T07:46:52.289Z,65.40
2019-03-16T07:47:55.877Z,65.36
2019-03-16T07:49:40.526Z,65.33
2019-03-16T07:50:44.030Z,65.29
2019-03-16T07:52:06.987Z,65.26
2019-03-16T07:53:10.506Z,65.21
2019-03-16T07:54:14.057Z,65.27
2019-03-16T07:55:17.805Z,65.31
2019-03-16T07:56:21.386Z,65.22
2019-03-16T07:57:24.886Z,65.27
2019-03-16T07:58:28.410Z,65.27
2019-03-16T07:59:31.910Z,65.36
2019-03-16T08:00:35.556Z,65.37
2019-03-16T08:01:39.029Z,65.37
2019-03-16T08:02:42.636Z,65.38
2019-03-16T08:03:46.208Z,65.35
2019-03-16T08:04:49.699Z,65.38
2019-03-16T08:05:53.199Z,65.45
2019-03-16T08:06:56.718Z,65.42
2019-03-16T08:08:00.301Z,65.43
2019-03-16T08:09:05.543Z,65.49
2019-03-16T08:10:10.799Z,65.62
2019-03-16T08:11:14.290Z,65.45
2019-03-16T08:12:17.878Z,65.45
2019-03-16T08:13:21.371Z,65.40
2019-03-16T08:14:25.043Z,65.54
2019-03-16T08:15:28.662Z,65.34
2019-03-16T08:16:32.363Z,65.32
2019-03-16T08:17:36.111Z,65.24
2019-03-16T08:18:40.081Z,65.43
2019-03-16T08:19:43.786Z,65.62
2019-03-16T08:20:47.609Z,65.51
2019-03-16T08:21:53.656Z,65.63
2019-03-16T08:22:57.302Z,65.60
2019-03-16T08:24:00.825Z,65.90
2019-03-16T08:25:05.062Z,66.05
2019-03-16T08:26:08.713Z,65.92
2019-03-16T08:27:12.369Z,64.58
2019-03-16T08:28:15.958Z,62.55
2019-03-16T08:29:19.473Z,61.60
2019-03-16T08:30:23.867Z,61.31
2019-03-16T08:31:28.844Z,60.85
2019-03-16T08:32:32.437Z,60.26
2019-03-16T08:33:38.099Z,61.07
2019-03-16T08:34:41.646Z,60.43
2019-03-16T08:35:46.197Z,59.92
2019-03-16T08:36:49.812Z,59.79
2019-03-16T08:37:53.375Z,59.62
2019-03-16T08:38:57.034Z,59.61
2019-03-16T08:40:00.938Z,60.22
2019-03-16T08:41:04.420Z,59.95
2019-03-16T08:42:07.906Z,59.93
2019-03-16T08:43:11.507Z,59.73
2019-03-16T08:44:15.176Z,59.71
2019-03-16T08:45:18.814Z,59.65
2019-03-16T08:46:22.493Z,59.65
2019-03-16T08:47:26.636Z,59.70
2019-03-16T08:48:30.283Z,60.56
2019-03-16T08:49:33.962Z,60.68
2019-03-16T08:50:37.711Z,60.57
2019-03-16T08:51:41.735Z,60.35
2019-03-16T08:52:45.475Z,60.19
2019-03-16T08:53:52.719Z,60.02
2019-03-16T08:54:59.426Z,60.14
2019-03-16T08:56:02.942Z,60.24
2019-03-16T08:57:09.346Z,60.32
2019-03-16T08:58:16.070Z,60.41
2019-03-16T08:59:19.571Z,60.48
2019-03-16T09:00:23.153Z,60.57
2019-03-16T09:01:26.656Z,60.69
2019-03-16T09:02:30.365Z,60.82
2019-03-16T09:03:43.016Z,60.81
2019-03-16T09:04:39.237Z,60.82
2019-03-16T09:05:42.936Z,60.97
2019-03-16T09:06:46.568Z,61.11
2019-03-16T09:07:50.247Z,61.01
2019-03-16T09:08:59.142Z,61.00
2019-03-16T09:10:02.644Z,60.96
2019-03-16T09:11:06.211Z,61.11
2019-03-16T09:12:09.778Z,61.32
2019-03-16T09:13:13.430Z,61.14
2019-03-16T09:14:16.927Z,61.04
2019-03-16T09:15:20.431Z,60.97
2019-03-16T09:16:23.925Z,61.01
2019-03-16T09:17:27.431Z,60.96
2019-03-16T09:18:30.947Z,60.96
2019-03-16T09:19:34.445Z,61.08
2019-03-16T09:20:38.141Z,61.44
2019-03-16T09:21:41.960Z,61.19
2019-03-16T09:22:45.461Z,61.22
2019-03-16T09:23:48.985Z,60.99
2019-03-16T09:25:09.948Z,61.04
2019-03-16T09:26:13.508Z,60.97
2019-03-16T09:27:17.019Z,60.98
2019-03-16T09:28:20.575Z,61.00
2019-03-16T09:29:24.092Z,60.87
2019-03-16T09:30:27.576Z,60.50
2019-03-16T09:31:31.088Z,60.33
2019-03-16T09:32:34.590Z,60.21
2019-03-16T09:33:38.083Z,60.26
2019-03-16T09:35:06.587Z,60.32
2019-03-16T09:36:10.156Z,60.30
2019-03-16T09:37:13.718Z,60.11
2019-03-16T09:38:17.231Z,60.04
2019-03-16T09:39:20.714Z,59.95
2019-03-16T09:41:11.212Z,59.69
2019-03-16T09:43:16.652Z,59.64
2019-03-16T09:44:20.298Z,59.49
2019-03-16T09:45:23.908Z,59.32
2019-03-16T09:46:27.746Z,59.00
2019-03-16T09:47:31.548Z,58.95
2019-03-16T09:48:42.768Z,58.91
2019-03-16T09:49:46.413Z,58.72
2019-03-16T09:50:49.918Z,58.61
2019-03-16T09:51:53.442Z,58.53
2019-03-16T09:52:56.938Z,58.26
2019-03-16T09:54:00.449Z,57.61
2019-03-16T09:55:05.892Z,57.73
2019-03-16T09:56:09.392Z,57.76
2019-03-16T09:57:12.971Z,57.85
2019-03-16T09:58:16.543Z,57.77
2019-03-16T09:59:20.047Z,57.74
2019-03-16T10:00:23.646Z,57.68
2019-03-16T10:01:27.208Z,57.58
2019-03-16T10:02:30.711Z,57.58
2019-03-16T10:03:34.206Z,57.53
2019-03-16T10:04:37.676Z,57.55
2019-03-16T10:05:42.142Z,57.55
2019-03-16T10:06:45.690Z,57.52
2019-03-16T10:07:49.176Z,57.46
2019-03-16T10:08:52.741Z,57.38
2019-03-16T10:09:56.320Z,57.30
2019-03-16T10:10:59.869Z,57.23
2019-03-16T10:12:03.558Z,57.21
2019-03-16T10:13:07.240Z,57.16
2019-03-16T10:14:10.725Z,57.10
2019-03-16T10:15:15.077Z,57.07
2019-03-16T10:16:18.598Z,57.08
2019-03-16T10:17:22.136Z,57.04
2019-03-16T10:18:25.675Z,56.98
2019-03-16T10:19:29.228Z,56.96
2019-03-16T10:20:32.781Z,56.92
2019-03-16T10:21:39.282Z,56.93
2019-03-16T10:22:42.789Z,56.94
2019-03-16T10:23:46.305Z,56.98
2019-03-16T10:24:49.779Z,57.00
2019-03-16T10:25:53.320Z,57.06
2019-03-16T10:26:56.852Z,57.04
2019-03-16T10:28:00.434Z,57.11
2019-03-16T10:29:04.062Z,56.76
2019-03-16T10:30:13.178Z,56.76
2019-03-16T10:31:16.646Z,57.12
2019-03-16T10:32:20.155Z,57.10
2019-03-16T10:33:23.719Z,57.07
2019-03-16T10:34:27.245Z,57.09
2019-03-16T10:35:30.887Z,57.12
2019-03-16T10:36:34.438Z,57.10
2019-03-16T10:37:38.118Z,57.11
2019-03-16T10:38:41.685Z,57.11
2019-03-16T10:39:45.239Z,57.14
2019-03-16T10:40:48.814Z,57.18
2019-03-16T10:41:52.336Z,57.30
2019-03-16T10:42:55.928Z,57.27
2019-03-16T10:43:59.422Z,57.20
2019-03-16T10:45:03.152Z,57.18
2019-03-16T10:46:08.438Z,57.21
2019-03-16T10:47:11.860Z,57.30
2019-03-16T10:48:15.360Z,57.34
2019-03-16T10:49:18.855Z,56.68
2019-03-16T10:50:22.354Z,56.68
2019-03-16T10:51:27.754Z,57.30
2019-03-16T10:52:31.121Z,57.20
2019-03-16T10:53:34.619Z,57.21
2019-03-16T10:54:38.261Z,57.22
2019-03-16T10:55:41.841Z,57.25
2019-03-16T10:56:45.391Z,57.28
2019-03-16T10:57:48.947Z,57.33
2019-03-16T10:58:56.915Z,57.37
2019-03-16T10:59:57.743Z,57.45
2019-03-16T11:01:01.241Z,57.46
2019-03-16T11:02:04.715Z,57.49
2019-03-16T11:03:08.210Z,57.51
2019-03-16T11:04:11.729Z,57.52
2019-03-16T11:05:15.518Z,57.54
2019-03-16T11:06:19.068Z,57.60
2019-03-16T11:08:10.359Z,57.54
2019-03-16T11:09:14.243Z,57.52
2019-03-16T11:10:17.881Z,57.50
2019-03-16T11:11:21.642Z,57.40
2019-03-16T11:12:41.867Z,57.42
2019-03-16T11:13:45.351Z,57.38
2019-03-16T11:15:10.875Z,57.32
2019-03-16T11:16:14.512Z,57.26
2019-03-16T11:17:41.406Z,57.15
2019-03-16T11:18:44.972Z,57.08
2019-03-16T11:19:48.477Z,57.16
2019-03-16T11:20:52.015Z,57.68
2019-03-16T11:21:55.476Z,57.68
2019-03-16T11:22:58.961Z,58.17
2019-03-16T11:24:02.545Z,58.19
2019-03-16T11:25:07.298Z,58.28
2019-03-16T11:27:38.770Z,58.39
2019-03-16T11:28:42.282Z,58.44
2019-03-16T11:29:45.839Z,58.48
2019-03-16T11:31:14.609Z,58.49
2019-03-16T11:32:18.107Z,58.58
2019-03-16T11:34:10.782Z,58.84
2019-03-16T11:36:09.930Z,58.82
2019-03-16T11:37:13.545Z,58.97
2019-03-16T11:38:41.532Z,58.98
2019-03-16T11:39:45.052Z,59.08
2019-03-16T11:40:48.625Z,59.19
2019-03-16T11:41:52.121Z,59.12
2019-03-16T11:42:55.670Z,59.09
2019-03-16T11:43:59.324Z,59.10
2019-03-16T11:45:03.133Z,59.10
2019-03-16T11:47:46.432Z,59.31
2019-03-16T11:49:07.172Z,59.29
2019-03-16T11:50:11.528Z,59.32
2019-03-16T11:52:46.576Z,59.40
2019-03-16T11:53:50.074Z,59.46
2019-03-16T11:54:53.515Z,59.40
2019-03-16T11:55:56.990Z,59.48
2019-03-16T11:57:00.512Z,59.48
2019-03-16T11:58:04.010Z,59.47
2019-03-16T11:59:07.530Z,59.47
2019-03-16T12:00:12.561Z,59.52
2019-03-16T12:01:16.002Z,59.58
2019-03-16T12:02:19.444Z,59.60
2019-03-16T12:03:22.956Z,59.66
2019-03-16T12:04:26.400Z,59.68
2019-03-16T12:05:29.888Z,59.72
2019-03-16T12:06:33.347Z,59.77
2019-03-16T12:07:36.790Z,59.78
2019-03-16T12:08:40.292Z,59.81
2019-03-16T12:09:43.739Z,59.88
2019-03-16T12:10:47.187Z,59.92
2019-03-16T12:11:51.180Z,59.84
2019-03-16T12:12:54.833Z,59.84
2019-03-16T12:13:58.340Z,60.28
2019-03-16T12:15:01.804Z,60.34
2019-03-16T12:16:05.244Z,60.40
2019-03-16T12:17:08.715Z,60.38
2019-03-16T12:18:12.258Z,60.40
2019-03-16T12:19:15.717Z,60.37
2019-03-16T12:20:19.264Z,60.40
2019-03-16T12:21:22.702Z,60.41
2019-03-16T12:22:26.173Z,60.39
2019-03-16T12:23:29.655Z,60.32
2019-03-16T12:24:33.108Z,60.32
2019-03-16T12:25:36.576Z,60.30
2019-03-16T12:26:40.022Z,60.30
2019-03-16T12:27:43.465Z,60.32
2019-03-16T12:28:46.929Z,60.33
2019-03-16T12:29:50.414Z,60.33
2019-03-16T12:30:53.876Z,60.36
2019-03-16T12:31:57.348Z,60.38
2019-03-16T12:33:00.790Z,60.40
2019-03-16T12:34:04.331Z,60.38
2019-03-16T12:35:08.729Z,60.36
2019-03-16T12:36:12.189Z,60.36
2019-03-16T12:37:15.686Z,60.35
2019-03-16T12:38:19.106Z,60.35
2019-03-16T12:39:22.575Z,60.48
2019-03-16T12:40:26.061Z,61.43
2019-03-16T12:41:29.574Z,61.81
2019-03-16T12:42:33.047Z,62.02
2019-03-16T12:43:36.490Z,61.79
2019-03-16T12:44:39.940Z,61.67
2019-03-16T12:45:43.447Z,61.79
2019-03-16T12:46:46.877Z,61.73
2019-03-16T12:47:50.348Z,61.69
2019-03-16T12:48:53.811Z,61.59
2019-03-16T12:49:57.379Z,61.53
2019-03-16T12:51:00.874Z,61.36
2019-03-16T12:52:04.327Z,61.27
2019-03-16T12:53:07.782Z,61.20
2019-03-16T12:54:11.253Z,61.27
2019-03-16T12:55:14.761Z,61.27
2019-03-16T12:56:18.254Z,61.21
2019-03-16T12:57:21.797Z,61.20
2019-03-16T12:58:25.244Z,61.15
2019-03-16T12:59:28.720Z,61.17
2019-03-16T13:00:32.192Z,61.18
2019-03-16T13:01:35.700Z,61.15
2019-03-16T13:02:39.159Z,61.11
2019-03-16T13:03:42.599Z,61.07
2019-03-16T13:04:46.083Z,61.00
2019-03-16T13:05:52.479Z,61.12
2019-03-16T13:06:55.944Z,61.36
2019-03-16T13:07:59.412Z,61.67
2019-03-16T13:09:02.875Z,61.97
2019-03-16T13:10:11.894Z,62.08
2019-03-16T13:11:15.352Z,62.24
2019-03-16T13:12:18.833Z,62.63
2019-03-16T13:13:22.304Z,62.60
2019-03-16T13:14:25.770Z,62.57
2019-03-16T13:15:29.216Z,62.66
2019-03-16T13:16:32.679Z,62.78
2019-03-16T13:17:36.149Z,62.97
2019-03-16T13:18:39.612Z,62.91
2019-03-16T13:19:43.084Z,62.91
2019-03-16T13:20:46.543Z,62.88
2019-03-16T13:21:49.993Z,62.87
2019-03-16T13:22:53.475Z,63.13
2019-03-16T13:23:56.933Z,63.13
2019-03-16T13:25:00.410Z,63.18
2019-03-16T13:26:03.923Z,63.14
2019-03-16T13:27:07.452Z,62.77
2019-03-16T13:28:10.931Z,62.85
2019-03-16T13:29:14.388Z,62.90
2019-03-16T13:30:18.891Z,62.90
2019-03-16T13:31:22.348Z,62.91
2019-03-16T13:32:25.809Z,62.97
2019-03-16T13:33:29.311Z,63.02
2019-03-16T13:34:32.768Z,63.04
2019-03-16T13:35:36.228Z,63.01
2019-03-16T13:36:39.687Z,62.93
2019-03-16T13:37:43.148Z,63.11
2019-03-16T13:38:46.696Z,63.04
2019-03-16T13:39:50.158Z,62.98
2019-03-16T13:40:53.620Z,62.84
2019-03-16T13:41:57.087Z,62.77
2019-03-16T13:43:00.546Z,62.73
2019-03-16T13:44:04.097Z,62.64
2019-03-16T13:45:08.896Z,62.60
2019-03-16T13:46:12.353Z,62.54
2019-03-16T13:47:15.820Z,62.45
2019-03-16T13:48:19.286Z,62.40
2019-03-16T13:49:22.763Z,62.35
2019-03-16T13:50:26.222Z,62.30
2019-03-16T13:51:29.959Z,62.27
2019-03-16T13:52:33.415Z,62.23
2019-03-16T13:53:36.890Z,62.20
2019-03-16T13:54:40.546Z,62.18
2019-03-16T13:55:44.007Z,62.14
2019-03-16T13:56:47.472Z,62.08
2019-03-16T13:57:50.931Z,62.04
2019-03-16T13:58:54.664Z,61.98